Time;durP1;ratioP1;P1;durP2;ratioP2;P2;SDS_P1;SDS_P2;PMS_P1;PMS_P2;Temp;Humidity;BMP_temperature;BMP_pressure;BME280_temperature;BME280_humidity;BME280_pressure;Samples;Min_cycle;Max_cycle;Signal;HPM_P1;HPM_P2
2024/03/04 00:00:03;;;;;;;0.30;0.20;;;10.40;99.90;;;;;;5088190;28;20173;-74
2024/03/04 00:02:31;;;;;;;1.63;1.52;;;10.20;99.90;;;;;;5088060;28;22128;-75
2024/03/04 00:04:57;;;;;;;0.30;0.20;;;10.10;99.90;;;;;;5088147;28;20165;-76
2024/03/04 00:07:24;;;;;;;0.30;0.20;;;10.00;99.90;;;;;;5087594;28;20173;-75
2024/03/04 00:09:51;;;;;;;1.20;1.10;;;10.00;99.90;;;;;;5088163;28;20172;-75
2024/03/04 00:12:17;;;;;;;4.03;3.92;;;10.00;99.90;;;;;;5085920;28;20204;-76
2024/03/04 00:14:42;;;;;;;0.35;0.20;;;10.00;99.90;;;;;;5088279;28;20568;-76
2024/03/04 00:17:09;;;;;;;0.30;0.20;;;9.90;99.90;;;;;;5087570;28;20208;-74
2024/03/04 00:19:36;;;;;;;0.30;0.30;;;9.90;99.90;;;;;;5086692;28;20675;-75
2024/03/04 00:22:03;;;;;;;0.30;0.20;;;9.90;99.90;;;;;;5087537;28;20553;-75
2024/03/04 00:24:29;;;;;;;2.67;2.58;;;9.90;99.90;;;;;;5086560;28;20208;-74
2024/03/04 00:26:55;;;;;;;0.30;0.20;;;9.90;99.90;;;;;;5087661;28;20649;-75
2024/03/04 00:29:21;;;;;;;0.30;0.20;;;9.80;99.90;;;;;;5087947;28;20287;-76
2024/03/04 00:31:46;;;;;;;0.30;0.20;;;9.70;99.90;;;;;;5087619;28;20254;-75
2024/03/04 00:34:12;;;;;;;0.30;0.20;;;9.70;99.90;;;;;;5087232;28;20717;-76
2024/03/04 00:36:39;;;;;;;0.30;0.30;;;9.70;99.90;;;;;;5087353;28;20244;-75
2024/03/04 00:39:05;;;;;;;1.35;1.27;;;9.70;99.90;;;;;;5087532;28;20455;-75
2024/03/04 00:41:30;;;;;;;0.30;0.20;;;9.80;99.90;;;;;;5085923;28;20181;-75
2024/03/04 00:43:56;;;;;;;0.30;0.20;;;9.80;99.90;;;;;;5086924;28;20197;-75
2024/03/04 00:46:23;;;;;;;0.30;0.20;;;9.80;99.90;;;;;;5086112;28;20909;-75
2024/03/04 00:48:49;;;;;;;0.30;0.20;;;9.80;99.90;;;;;;5086274;28;20242;-74
2024/03/04 00:51:15;;;;;;;0.30;0.20;;;9.70;99.90;;;;;;5087179;28;20657;-75
2024/03/04 00:53:45;;;;;;;0.30;0.20;;;9.70;99.90;;;;;;5085528;28;20254;-76
2024/03/04 00:56:11;;;;;;;0.30;0.20;;;9.60;99.90;;;;;;5087143;28;20212;-74
2024/03/04 00:58:38;;;;;;;1.73;1.65;;;9.60;99.90;;;;;;5085794;28;20200;-74
2024/03/04 01:01:05;;;;;;;0.47;0.47;;;9.50;99.90;;;;;;5085803;28;20184;-75
2024/03/04 01:03:32;;;;;;;0.30;0.20;;;9.50;99.90;;;;;;5086981;28;20312;-74
2024/03/04 01:06:01;;;;;;;0.30;0.20;;;9.50;99.90;;;;;;5086819;28;20218;-76
2024/03/04 01:08:27;;;;;;;0.60;0.60;;;9.40;99.90;;;;;;5086812;28;20563;-76
2024/03/04 01:10:54;;;;;;;0.30;0.20;;;9.40;99.90;;;;;;5085460;28;20176;-75
2024/03/04 01:13:20;;;;;;;0.30;0.20;;;9.30;99.90;;;;;;5086388;28;20607;-75
2024/03/04 01:15:49;;;;;;;0.30;0.20;;;9.30;99.90;;;;;;5086990;28;20846;-75
2024/03/04 01:18:16;;;;;;;0.82;0.82;;;9.30;99.90;;;;;;5086310;28;20261;-75
2024/03/04 01:20:45;;;;;;;0.30;0.20;;;9.20;99.90;;;;;;5086731;28;20217;-74
2024/03/04 01:23:11;;;;;;;0.30;0.30;;;9.20;99.90;;;;;;5084892;28;20400;-75
2024/03/04 01:25:37;;;;;;;0.30;0.30;;;9.20;99.90;;;;;;5086928;28;20294;-76
2024/03/04 01:28:03;;;;;;;11.98;6.95;;;9.10;99.90;;;;;;5086184;28;20200;-77
2024/03/04 01:30:29;;;;;;;0.30;0.27;;;9.00;99.90;;;;;;5085464;28;20183;-76
2024/03/04 01:32:56;;;;;;;0.30;0.20;;;9.00;99.90;;;;;;5086336;28;20467;-75
2024/03/04 01:35:23;;;;;;;0.30;0.20;;;9.00;99.90;;;;;;5084948;28;20181;-75
2024/03/04 01:37:49;;;;;;;0.30;0.30;;;8.90;99.90;;;;;;5085199;28;20227;-77
2024/03/04 01:40:14;;;;;;;0.30;0.20;;;8.90;99.90;;;;;;5086396;28;20173;-76
2024/03/04 01:42:43;;;;;;;0.30;0.20;;;8.80;99.90;;;;;;5086211;28;20203;-76
2024/03/04 01:45:23;;;;;;;0.30;0.20;;;8.80;99.90;;;;;;5086255;28;20176;-76
2024/03/04 01:48:09;;;;;;;0.30;0.20;;;8.80;99.90;;;;;;5086007;28;20296;-75
2024/03/04 01:50:38;;;;;;;0.30;0.20;;;8.80;99.90;;;;;;5086313;28;20406;-74
2024/03/04 01:53:06;;;;;;;0.30;0.20;;;8.80;99.90;;;;;;5085726;28;20197;-75
2024/03/04 01:55:40;;;;;;;0.30;0.20;;;8.70;99.90;;;;;;5084644;28;20324;-76
2024/03/04 01:58:09;;;;;;;0.30;0.20;;;8.70;99.90;;;;;;5084452;28;20718;-76
2024/03/04 02:00:39;;;;;;;0.30;0.20;;;8.70;99.90;;;;;;5086167;28;20685;-77
2024/03/04 02:03:06;;;;;;;0.30;0.20;;;8.60;99.90;;;;;;5084168;28;20547;-76
2024/03/04 02:05:33;;;;;;;0.30;0.20;;;8.60;99.90;;;;;;5084552;28;20176;-76
2024/03/04 02:07:59;;;;;;;0.30;0.20;;;8.50;99.90;;;;;;5085446;28;20267;-75
2024/03/04 02:10:26;;;;;;;0.40;0.35;;;8.50;99.90;;;;;;5086252;28;20169;-76
2024/03/04 02:12:53;;;;;;;0.30;0.20;;;8.40;99.90;;;;;;5083895;28;20255;-77
2024/03/04 02:15:18;;;;;;;0.30;0.20;;;8.50;99.90;;;;;;5084535;28;20177;-77
2024/03/04 02:17:45;;;;;;;0.30;0.20;;;8.50;99.90;;;;;;5085568;28;20757;-76
2024/03/04 02:20:15;;;;;;;0.30;0.20;;;8.50;99.90;;;;;;5086105;28;20637;-77
2024/03/04 02:22:41;;;;;;;0.30;0.20;;;8.40;99.90;;;;;;5084022;28;20212;-76
2024/03/04 02:25:08;;;;;;;0.50;0.50;;;8.40;99.90;;;;;;5085772;28;20172;-76
2024/03/04 02:27:36;;;;;;;0.30;0.20;;;8.30;99.90;;;;;;5084016;28;20203;-76
2024/03/04 02:30:04;;;;;;;0.30;0.20;;;8.30;99.90;;;;;;5085556;28;20196;-76
2024/03/04 02:32:29;;;;;;;0.30;0.20;;;8.30;99.90;;;;;;5085372;28;20196;-75
2024/03/04 02:34:55;;;;;;;0.30;0.20;;;8.30;99.90;;;;;;5085520;28;20414;-75
2024/03/04 02:37:21;;;;;;;0.30;0.20;;;8.30;99.90;;;;;;5085137;28;20285;-74
2024/03/04 02:39:49;;;;;;;0.30;0.20;;;8.30;99.90;;;;;;5085368;28;20226;-74
2024/03/04 02:42:14;;;;;;;0.30;0.20;;;8.30;99.90;;;;;;5083889;28;20485;-74
2024/03/04 02:44:40;;;;;;;0.30;0.20;;;8.20;99.90;;;;;;5085594;28;20185;-75
2024/03/04 02:47:06;;;;;;;0.30;0.20;;;8.20;99.90;;;;;;5084993;28;20381;-75
2024/03/04 02:49:34;;;;;;;0.30;0.20;;;8.20;99.90;;;;;;5085890;28;20367;-75
2024/03/04 02:52:00;;;;;;;0.30;0.20;;;8.20;99.90;;;;;;5084959;28;20169;-75
2024/03/04 02:54:25;;;;;;;0.30;0.20;;;8.20;99.90;;;;;;5085249;28;20211;-75
2024/03/04 02:56:52;;;;;;;0.30;0.30;;;8.10;99.90;;;;;;5083901;28;20582;-76
2024/03/04 02:59:19;;;;;;;0.30;0.20;;;8.20;99.90;;;;;;5084060;28;20204;-77
2024/03/04 03:01:48;;;;;;;0.30;0.20;;;8.10;99.90;;;;;;5083758;28;20329;-74
2024/03/04 03:04:14;;;;;;;0.30;0.20;;;8.10;99.90;;;;;;5084156;28;20551;-74
2024/03/04 03:06:42;;;;;;;0.30;0.20;;;8.00;99.90;;;;;;5084083;28;20176;-75
2024/03/04 03:09:11;;;;;;;0.30;0.20;;;7.90;99.90;;;;;;5089087;28;20212;-75
2024/03/04 03:11:39;;;;;;;0.30;0.20;;;8.00;99.90;;;;;;5087568;28;20176;-77
2024/03/04 03:14:04;;;;;;;0.30;0.20;;;8.00;99.90;;;;;;5088846;28;20735;-76
2024/03/04 03:16:30;;;;;;;0.30;0.20;;;8.00;99.90;;;;;;5089350;28;20227;-77
2024/03/04 03:18:56;;;;;;;0.30;0.20;;;8.00;99.90;;;;;;5087592;28;20207;-77
2024/03/04 03:21:26;;;;;;;0.30;0.20;;;7.90;99.90;;;;;;5088575;28;20376;-74
2024/03/04 03:23:52;;;;;;;0.30;0.20;;;8.00;99.90;;;;;;5089422;28;20207;-77
2024/03/04 03:26:18;;;;;;;0.30;0.20;;;7.90;99.90;;;;;;5088636;28;20524;-77
2024/03/04 03:28:45;;;;;;;0.30;0.20;;;7.90;99.90;;;;;;5089313;28;20665;-77
2024/03/04 03:31:11;;;;;;;0.30;0.20;;;7.80;99.90;;;;;;5087168;28;20173;-77
2024/03/04 03:33:37;;;;;;;0.30;0.20;;;7.80;99.90;;;;;;5087351;28;20204;-74
2024/03/04 03:36:05;;;;;;;0.88;0.85;;;7.70;99.90;;;;;;5087016;28;20176;-75
2024/03/04 03:38:32;;;;;;;0.30;0.20;;;7.70;99.90;;;;;;5087205;28;20200;-74
2024/03/04 03:40:58;;;;;;;0.30;0.30;;;7.70;99.90;;;;;;5086704;28;20256;-74
2024/03/04 03:43:24;;;;;;;0.30;0.20;;;7.80;99.90;;;;;;5086289;28;20208;-74
2024/03/04 03:45:50;;;;;;;0.30;0.20;;;7.80;99.90;;;;;;5088732;28;20165;-74
2024/03/04 03:48:19;;;;;;;0.30;0.20;;;7.70;99.90;;;;;;5088243;28;20362;-74
2024/03/04 03:50:46;;;;;;;0.52;0.50;;;7.70;99.90;;;;;;5087368;28;20240;-74
2024/03/04 03:53:12;;;;;;;0.30;0.20;;;7.70;99.90;;;;;;5088017;28;20200;-75
2024/03/04 03:55:38;;;;;;;0.30;0.20;;;7.70;99.90;;;;;;5088670;28;20544;-77
2024/03/04 03:58:04;;;;;;;0.30;0.20;;;7.70;99.90;;;;;;5086432;28;20480;-77
2024/03/04 04:00:30;;;;;;;0.30;0.20;;;7.70;99.90;;;;;;5088529;28;20294;-77
2024/03/04 04:02:56;;;;;;;0.30;0.20;;;7.70;99.90;;;;;;5088251;28;20432;-77
2024/03/04 04:05:22;;;;;;;0.30;0.20;;;7.80;99.90;;;;;;5086663;28;20429;-76
2024/03/04 04:07:47;;;;;;;0.30;0.20;;;7.80;99.90;;;;;;5088125;28;20316;-76
2024/03/04 04:10:14;;;;;;;0.30;0.20;;;7.90;99.90;;;;;;5088120;28;20165;-76
2024/03/04 04:12:40;;;;;;;0.40;0.30;;;7.90;99.90;;;;;;5087610;28;20234;-76
2024/03/04 04:15:06;;;;;;;0.30;0.20;;;7.90;99.90;;;;;;5086859;28;20180;-76
2024/03/04 04:17:32;;;;;;;0.30;0.20;;;7.90;99.90;;;;;;5087692;28;20946;-75
2024/03/04 04:19:57;;;;;;;0.30;0.20;;;7.90;99.90;;;;;;5086847;28;20404;-75
2024/03/04 04:22:23;;;;;;;0.30;0.20;;;7.90;99.90;;;;;;5087787;28;21024;-74
2024/03/04 04:24:49;;;;;;;0.30;0.30;;;7.90;99.90;;;;;;5086855;28;20184;-75
2024/03/04 04:27:15;;;;;;;0.30;0.20;;;7.80;99.90;;;;;;5087558;28;20183;-74
2024/03/04 04:29:41;;;;;;;0.30;0.20;;;7.80;99.90;;;;;;5088430;28;20177;-75
2024/03/04 04:32:07;;;;;;;0.30;0.20;;;7.70;99.90;;;;;;5086119;28;20286;-74
2024/03/04 04:34:32;;;;;;;0.30;0.20;;;7.60;99.90;;;;;;5088210;28;20200;-75
2024/03/04 04:36:58;;;;;;;0.30;0.20;;;7.60;99.90;;;;;;5087387;28;20544;-76
2024/03/04 04:39:24;;;;;;;0.30;0.20;;;7.60;99.90;;;;;;5086351;28;20207;-76
2024/03/04 04:41:50;;;;;;;0.30;0.20;;;7.70;99.90;;;;;;5087721;28;20664;-76
2024/03/04 04:44:16;;;;;;;0.30;0.20;;;7.60;99.90;;;;;;5085348;28;20204;-76
2024/03/04 04:46:43;;;;;;;0.30;0.20;;;7.60;99.90;;;;;;5085538;28;20806;-77
2024/03/04 04:49:09;;;;;;;36.22;34.17;;;7.60;99.90;;;;;;5087172;28;20411;-76
2024/03/04 04:51:35;;;;;;;0.30;0.20;;;7.50;99.90;;;;;;5086041;28;20203;-76
2024/03/04 04:54:00;;;;;;;0.30;0.20;;;7.60;99.90;;;;;;5085709;28;20681;-77
2024/03/04 04:56:28;;;;;;;0.30;0.20;;;7.50;99.90;;;;;;5085903;28;20291;-76
2024/03/04 04:58:53;;;;;;;0.30;0.30;;;7.50;99.90;;;;;;5087502;28;20196;-76
2024/03/04 05:01:29;;;;;;;0.30;0.20;;;7.50;99.90;;;;;;5083879;28;20179;-77
2024/03/04 05:03:55;;;;;;;0.45;0.43;;;7.50;99.90;;;;;;5087234;28;20265;-76
2024/03/04 05:06:21;;;;;;;0.30;0.20;;;7.50;99.90;;;;;;5086853;28;20180;-77
2024/03/04 05:08:48;;;;;;;0.30;0.20;;;7.50;99.90;;;;;;5087298;28;20533;-76
2024/03/04 05:11:15;;;;;;;0.30;0.20;;;7.50;99.90;;;;;;5085350;28;20656;-77
2024/03/04 05:13:41;;;;;;;0.30;0.20;;;7.40;99.90;;;;;;5084844;28;20277;-76
2024/03/04 05:16:08;;;;;;;0.30;0.20;;;7.40;99.90;;;;;;5086612;28;20732;-76
2024/03/04 05:18:35;;;;;;;0.30;0.20;;;7.30;99.90;;;;;;5086339;28;20726;-77
2024/03/04 05:21:04;;;;;;;0.30;0.20;;;7.30;99.90;;;;;;5084459;28;20199;-76
2024/03/04 05:23:31;;;;;;;0.30;0.20;;;7.30;99.90;;;;;;5072293;28;20212;-77
2024/03/04 05:25:58;;;;;;;0.30;0.20;;;7.30;99.90;;;;;;5073960;28;20617;-76
2024/03/04 05:28:24;;;;;;;0.30;0.20;;;7.30;99.90;;;;;;5065314;28;20662;-76
2024/03/04 05:30:50;;;;;;;0.30;0.20;;;7.20;99.90;;;;;;5063883;28;20209;-76
2024/03/04 05:33:16;;;;;;;0.30;0.20;;;7.20;99.90;;;;;;5064178;28;20599;-76
2024/03/04 05:35:42;;;;;;;0.30;0.30;;;7.20;99.90;;;;;;5082571;28;20180;-77
2024/03/04 05:38:08;;;;;;;0.30;0.20;;;7.20;99.90;;;;;;5084764;28;20455;-74
2024/03/04 05:40:33;;;;;;;0.30;0.20;;;7.20;99.90;;;;;;5067773;28;20259;-74
2024/03/04 05:42:59;;;;;;;0.30;0.20;;;7.10;99.90;;;;;;5065886;28;20468;-75
2024/03/04 05:45:24;;;;;;;0.30;0.20;;;7.20;99.90;;;;;;5066254;28;20229;-75
2024/03/04 05:47:50;;;;;;;0.30;0.20;;;7.20;99.90;;;;;;5072924;28;20308;-74
2024/03/04 05:50:17;;;;;;;0.30;0.20;;;7.20;99.90;;;;;;5073188;28;20342;-75
2024/03/04 05:52:46;;;;;;;10.70;10.30;;;7.20;99.90;;;;;;5068393;28;20193;-75
2024/03/04 05:55:13;;;;;;;0.30;0.20;;;7.20;99.90;;;;;;5064274;28;20200;-75
2024/03/04 05:57:39;;;;;;;0.30;0.20;;;7.30;99.90;;;;;;5063118;28;20236;-77
2024/03/04 06:00:11;;;;;;;0.30;0.20;;;7.30;99.90;;;;;;5065035;28;20165;-74
2024/03/04 06:02:38;;;;;;;0.30;0.20;;;7.40;99.90;;;;;;5068123;28;20201;-75
2024/03/04 06:05:05;;;;;;;0.30;0.20;;;7.40;99.90;;;;;;5069176;28;20237;-74
2024/03/04 06:07:31;;;;;;;0.30;0.20;;;7.50;99.90;;;;;;5074591;28;20594;-75
2024/03/04 06:09:57;;;;;;;0.30;0.20;;;7.50;99.90;;;;;;5082233;28;20274;-74
2024/03/04 06:12:22;;;;;;;0.30;0.20;;;7.50;99.90;;;;;;5071678;28;20173;-74
2024/03/04 06:14:48;;;;;;;0.30;0.20;;;7.50;99.90;;;;;;5074270;28;20180;-75
2024/03/04 06:17:14;;;;;;;0.30;0.23;;;7.40;99.90;;;;;;5076100;28;20353;-75
2024/03/04 06:19:40;;;;;;;0.30;0.20;;;7.40;99.90;;;;;;5078164;28;20192;-74
2024/03/04 06:22:05;;;;;;;0.53;0.50;;;7.40;99.90;;;;;;5094412;28;20180;-74
2024/03/04 06:24:34;;;;;;;0.30;0.20;;;7.50;99.90;;;;;;5077757;28;20417;-74
2024/03/04 06:27:04;;;;;;;0.30;0.20;;;7.50;99.90;;;;;;5084519;28;20493;-74
2024/03/04 06:29:30;;;;;;;0.30;0.20;;;7.40;99.90;;;;;;5081290;28;20294;-77
2024/03/04 06:31:57;;;;;;;0.30;0.20;;;7.40;99.90;;;;;;5077115;28;20237;-76
2024/03/04 06:34:23;;;;;;;0.30;0.20;;;7.50;99.90;;;;;;5100134;28;20372;-77
2024/03/04 06:36:48;;;;;;;0.30;0.20;;;7.50;99.90;;;;;;5075292;28;20220;-75
2024/03/04 06:39:16;;;;;;;0.30;0.20;;;7.60;99.90;;;;;;5073687;28;20193;-75
2024/03/04 06:41:43;;;;;;;0.30;0.20;;;7.70;99.90;;;;;;5078517;28;20368;-75
2024/03/04 06:44:08;;;;;;;0.30;0.20;;;7.70;99.90;;;;;;5083734;28;20204;-74
2024/03/04 06:46:34;;;;;;;0.30;0.20;;;7.80;99.90;;;;;;5076593;28;20280;-74
2024/03/04 06:49:00;;;;;;;0.30;0.20;;;7.90;99.90;;;;;;5063082;28;20197;-76
2024/03/04 06:51:26;;;;;;;0.30;0.20;;;8.00;99.90;;;;;;5066356;28;20431;-74
2024/03/04 06:53:52;;;;;;;0.30;0.20;;;8.10;99.90;;;;;;5059451;28;20458;-74
2024/03/04 06:56:18;;;;;;;0.38;0.20;;;8.30;99.90;;;;;;5076768;28;20220;-74
2024/03/04 06:58:45;;;;;;;0.30;0.20;;;8.40;99.90;;;;;;5084347;28;20208;-74
2024/03/04 07:01:10;;;;;;;0.30;0.20;;;8.50;99.90;;;;;;5080429;28;20467;-74
2024/03/04 07:03:37;;;;;;;0.30;0.20;;;8.60;99.90;;;;;;5079068;28;20534;-75
2024/03/04 07:06:03;;;;;;;0.30;0.20;;;8.70;99.90;;;;;;5077609;28;20256;-77
2024/03/04 07:08:29;;;;;;;0.30;0.20;;;8.90;99.90;;;;;;5079252;28;20649;-75
2024/03/04 07:10:55;;;;;;;0.60;0.60;;;9.00;99.90;;;;;;5078206;28;20256;-77
2024/03/04 07:13:20;;;;;;;0.30;0.20;;;9.20;99.90;;;;;;5063361;28;20233;-77
2024/03/04 07:15:46;;;;;;;0.30;0.20;;;9.30;99.90;;;;;;5069319;28;20177;-75
2024/03/04 07:18:11;;;;;;;0.30;0.20;;;9.40;99.90;;;;;;5080526;28;20220;-75
2024/03/04 07:20:38;;;;;;;0.40;0.30;;;9.60;99.90;;;;;;5081042;28;20185;-76
2024/03/04 07:23:04;;;;;;;2.25;2.15;;;9.80;99.90;;;;;;5069294;28;20228;-74
2024/03/04 07:25:30;;;;;;;1.80;1.70;;;9.90;99.90;;;;;;5081064;28;20211;-74
2024/03/04 07:27:55;;;;;;;0.30;0.20;;;10.10;99.90;;;;;;5081233;28;20226;-74
2024/03/04 07:30:21;;;;;;;1.23;1.23;;;10.20;99.90;;;;;;5081648;28;20199;-74
2024/03/04 07:32:47;;;;;;;2.00;1.90;;;10.30;99.90;;;;;;5079926;28;20665;-75
2024/03/04 07:35:12;;;;;;;0.30;0.20;;;10.40;99.90;;;;;;5075374;28;20185;-76
2024/03/04 07:37:38;;;;;;;1.07;1.07;;;10.50;99.90;;;;;;5071282;28;20236;-76
2024/03/04 07:40:04;;;;;;;0.30;0.20;;;10.60;99.90;;;;;;5071754;28;20195;-74
2024/03/04 07:42:30;;;;;;;0.30;0.20;;;10.70;99.90;;;;;;5077664;28;20204;-76
2024/03/04 07:44:56;;;;;;;0.30;0.20;;;10.90;99.90;;;;;;5063059;28;20181;-75
2024/03/04 07:47:21;;;;;;;0.30;0.20;;;11.00;99.90;;;;;;5060786;28;20181;-75
2024/03/04 07:49:47;;;;;;;0.30;0.20;;;11.10;99.90;;;;;;5077662;28;20195;-74
2024/03/04 07:52:13;;;;;;;0.30;0.30;;;11.30;99.90;;;;;;5073389;28;20676;-76
2024/03/04 07:54:38;;;;;;;0.30;0.30;;;11.50;99.90;;;;;;5080250;28;20522;-77
2024/03/04 07:57:04;;;;;;;3.00;2.90;;;11.60;99.90;;;;;;5081168;28;20673;-76
2024/03/04 07:59:30;;;;;;;1.33;1.23;;;11.80;99.90;;;;;;5080337;28;20608;-76
2024/03/04 08:01:56;;;;;;;0.30;0.20;;;11.90;99.90;;;;;;5081455;28;20268;-78
2024/03/04 08:04:21;;;;;;;0.63;0.63;;;12.00;99.90;;;;;;5081172;28;20527;-78
2024/03/04 08:06:47;;;;;;;0.97;0.97;;;12.20;99.90;;;;;;5079389;28;20856;-77
2024/03/04 08:09:14;;;;;;;1.40;0.90;;;12.40;99.90;;;;;;5078687;28;20344;-78
2024/03/04 08:11:40;;;;;;;0.30;0.20;;;12.60;99.90;;;;;;5083840;28;20321;-76
2024/03/04 08:14:06;;;;;;;0.30;0.20;;;12.90;99.90;;;;;;5082739;28;20567;-77
2024/03/04 08:16:31;;;;;;;0.30;0.30;;;13.30;99.90;;;;;;5081341;28;20565;-76
2024/03/04 08:18:57;;;;;;;1.77;1.40;;;13.70;99.90;;;;;;5078729;28;20690;-78
2024/03/04 08:21:23;;;;;;;0.60;0.60;;;14.10;99.90;;;;;;5078625;28;20192;-78
2024/03/04 08:23:48;;;;;;;0.40;0.30;;;14.40;99.90;;;;;;5082921;28;20213;-76
2024/03/04 08:26:14;;;;;;;0.40;0.30;;;14.80;99.90;;;;;;5077536;28;20590;-78
2024/03/04 08:28:40;;;;;;;0.30;0.30;;;15.30;99.90;;;;;;5080822;28;20231;-77
2024/03/04 08:31:06;;;;;;;0.40;0.20;;;16.00;99.90;;;;;;5079683;28;20259;-77
2024/03/04 08:33:33;;;;;;;0.40;0.20;;;16.60;99.90;;;;;;5080014;28;20462;-77
2024/03/04 08:35:59;;;;;;;1.10;0.63;;;17.30;99.90;;;;;;5081177;28;20508;-75
2024/03/04 08:38:26;;;;;;;0.40;0.20;;;17.90;99.90;;;;;;5084411;28;20520;-75
2024/03/04 08:40:53;;;;;;;0.77;0.73;;;18.60;99.90;;;;;;5086579;28;20541;-75
2024/03/04 08:43:19;;;;;;;0.40;0.30;;;19.00;99.90;;;;;;5075713;28;20464;-75
2024/03/04 08:45:45;;;;;;;0.40;0.20;;;19.60;99.90;;;;;;5077318;28;20504;-75
2024/03/04 08:48:10;;;;;;;0.40;0.30;;;20.10;99.90;;;;;;5079272;28;20546;-75
2024/03/04 08:50:36;;;;;;;1.07;1.07;;;20.60;99.90;;;;;;5075586;28;20703;-75
2024/03/04 08:53:02;;;;;;;0.93;0.93;;;21.10;99.90;;;;;;5080580;28;20518;-75
2024/03/04 08:55:28;;;;;;;0.33;0.23;;;21.60;99.90;;;;;;5075492;28;20459;-75
2024/03/04 08:57:53;;;;;;;0.40;0.37;;;21.90;99.90;;;;;;5076058;28;20496;-76
2024/03/04 09:00:20;;;;;;;0.40;0.20;;;22.20;99.90;;;;;;5072676;28;20257;-76
2024/03/04 09:02:45;;;;;;;1.80;1.03;;;22.50;99.40;;;;;;5075723;28;20471;-76
2024/03/04 09:05:11;;;;;;;0.60;0.60;;;22.60;99.10;;;;;;5077179;28;20435;-76
2024/03/04 09:07:37;;;;;;;1.23;0.77;;;22.60;98.10;;;;;;5075984;28;20219;-76
2024/03/04 09:10:04;;;;;;;0.40;0.40;;;22.90;97.50;;;;;;5072758;28;20270;-76
2024/03/04 09:12:30;;;;;;;0.30;0.20;;;22.60;97.40;;;;;;5072865;28;20240;-76
2024/03/04 09:14:56;;;;;;;2.43;1.07;;;22.20;97.50;;;;;;5075169;28;20428;-75
2024/03/04 09:20:08;;;;;;;0.30;0.20;;;21.30;98.10;;;;;;5078384;28;20516;-76
2024/03/04 09:22:34;;;;;;;0.63;0.63;;;21.30;98.20;;;;;;5079360;28;20454;-76
2024/03/04 09:25:00;;;;;;;0.40;0.20;;;21.50;98.40;;;;;;5078651;28;20460;-76
2024/03/04 09:27:26;;;;;;;1.63;1.53;;;21.90;98.00;;;;;;5080083;28;20181;-76
2024/03/04 09:29:51;;;;;;;0.60;0.60;;;22.00;97.50;;;;;;5075149;28;20242;-76
2024/03/04 09:32:17;;;;;;;0.30;0.20;;;22.10;97.50;;;;;;5079892;28;20240;-76
2024/03/04 09:34:43;;;;;;;0.30;0.20;;;22.30;97.00;;;;;;5076640;28;20185;-76
2024/03/04 09:37:11;;;;;;;0.70;0.70;;;22.40;97.00;;;;;;5080960;28;20302;-76
2024/03/04 09:39:38;;;;;;;0.40;0.40;;;22.20;96.70;;;;;;5076684;28;20192;-76
2024/03/04 09:42:04;;;;;;;2.77;2.47;;;21.70;97.00;;;;;;5075129;28;20456;-75
2024/03/04 09:44:30;;;;;;;0.30;0.30;;;21.10;97.20;;;;;;5072262;28;20903;-75
2024/03/04 09:46:56;;;;;;;3.23;2.83;;;20.70;98.00;;;;;;5079675;28;20498;-76
2024/03/04 09:49:28;;;;;;;0.47;0.47;;;20.70;98.30;;;;;;5078871;28;20807;-76
2024/03/04 09:52:01;;;;;;;0.33;0.30;;;21.10;97.10;;;;;;5079992;28;20433;-75
2024/03/04 09:54:30;;;;;;;0.70;0.70;;;21.30;97.70;;;;;;5079791;28;20460;-76
2024/03/04 09:56:57;;;;;;;0.37;0.30;;;21.60;97.00;;;;;;5074684;28;20983;-76
2024/03/04 09:59:24;;;;;;;0.40;0.40;;;21.40;96.50;;;;;;5077643;28;20548;-75
2024/03/04 10:01:51;;;;;;;0.37;0.37;;;20.90;97.20;;;;;;5080549;28;20524;-76
2024/03/04 10:04:18;;;;;;;0.70;0.70;;;20.90;97.40;;;;;;5070224;28;20854;-76
2024/03/04 10:06:44;;;;;;;0.30;0.20;;;20.90;97.30;;;;;;5075598;28;20437;-75
2024/03/04 10:09:12;;;;;;;0.43;0.43;;;20.90;97.50;;;;;;5076597;28;20895;-76
2024/03/04 10:11:42;;;;;;;0.30;0.20;;;20.70;97.40;;;;;;5078180;28;20372;-75
2024/03/04 10:14:08;;;;;;;0.30;0.30;;;20.60;96.50;;;;;;5072114;28;20625;-75
2024/03/04 10:16:36;;;;;;;0.73;0.60;;;20.40;97.10;;;;;;5070174;28;20556;-75
2024/03/04 10:19:03;;;;;;;0.30;0.20;;;20.20;97.20;;;;;;5072566;28;20464;-75
2024/03/04 10:21:30;;;;;;;0.50;0.50;;;20.10;96.90;;;;;;5075305;28;20724;-75
2024/03/04 10:24:15;;;;;;;0.57;0.57;;;20.00;96.80;;;;;;5078905;28;20459;-75
2024/03/04 10:26:46;;;;;;;0.30;0.20;;;19.80;97.30;;;;;;5090827;28;20437;-76
2024/03/04 10:29:15;;;;;;;1.03;1.03;;;19.80;97.80;;;;;;5073854;28;20445;-75
2024/03/04 10:31:50;;;;;;;0.60;0.60;;;19.90;97.80;;;;;;5075622;28;20812;-75
2024/03/04 10:34:16;;;;;;;0.40;0.40;;;19.80;97.60;;;;;;5069583;28;20823;-75
2024/03/04 10:36:45;;;;;;;0.30;0.30;;;19.60;98.00;;;;;;5072210;28;20472;-75
2024/03/04 10:39:15;;;;;;;0.30;0.30;;;19.50;98.20;;;;;;5068187;28;20456;-75
2024/03/04 10:41:46;;;;;;;1.07;1.07;;;19.50;98.30;;;;;;5069581;28;21098;-75
2024/03/04 10:44:26;;;;;;;0.40;0.40;;;19.50;97.70;;;;;;5073448;28;20515;-76
2024/03/04 10:46:55;;;;;;;0.30;0.20;;;19.50;97.20;;;;;;5069907;28;20470;-76
2024/03/04 10:49:22;;;;;;;0.30;0.20;;;19.50;97.20;;;;;;5063836;28;20513;-76
2024/03/04 10:51:48;;;;;;;0.30;0.20;;;19.50;96.90;;;;;;5068048;28;20502;-76
2024/03/04 10:54:14;;;;;;;0.30;0.20;;;19.50;97.40;;;;;;5071701;28;20452;-76
2024/03/04 10:56:51;;;;;;;1.73;1.63;;;19.70;97.10;;;;;;5070712;28;20317;-77
2024/03/04 10:59:19;;;;;;;0.30;0.30;;;19.70;96.20;;;;;;5065269;28;20277;-76
2024/03/04 11:01:45;;;;;;;0.40;0.37;;;19.80;96.40;;;;;;5072379;28;20626;-76
2024/03/04 11:04:14;;;;;;;0.30;0.30;;;19.80;96.60;;;;;;5081041;28;21382;-77
2024/03/04 11:06:40;;;;;;;0.70;0.70;;;19.80;97.10;;;;;;5073372;28;20429;-76
2024/03/04 11:09:09;;;;;;;2.30;2.20;;;19.80;97.20;;;;;;5070772;28;20484;-77
2024/03/04 11:11:40;;;;;;;0.30;0.20;;;19.70;97.30;;;;;;5069871;28;20433;-77
2024/03/04 11:14:32;;;;;;;0.30;0.20;;;19.60;97.20;;;;;;5066784;28;20815;-77
2024/03/04 11:17:01;;;;;;;0.30;0.20;;;19.50;97.40;;;;;;5069065;28;20588;-77
2024/03/04 11:19:52;;;;;;;0.30;0.30;;;19.40;97.40;;;;;;5070075;28;20800;-76
2024/03/04 11:22:18;;;;;;;0.70;0.70;;;19.40;97.30;;;;;;5075117;28;20433;-75
2024/03/04 11:24:46;;;;;;;0.40;0.37;;;19.30;97.50;;;;;;5076958;28;20432;-76
2024/03/04 11:27:14;;;;;;;2.40;1.27;;;19.20;97.80;;;;;;5077444;28;20421;-76
2024/03/04 11:29:40;;;;;;;5.30;4.53;;;19.20;97.80;;;;;;5075207;28;20440;-76
2024/03/04 11:32:09;;;;;;;0.67;0.67;;;19.20;98.00;;;;;;5072848;28;20444;-75
2024/03/04 11:35:09;;;;;;;0.60;0.60;;;19.10;98.10;;;;;;5080659;28;20428;-76
2024/03/04 11:37:50;;;;;;;0.30;0.20;;;19.10;98.00;;;;;;5069212;28;20480;-76
2024/03/04 11:40:17;;;;;;;0.40;0.40;;;19.20;98.10;;;;;;5068761;28;20433;-76
2024/03/04 11:42:44;;;;;;;0.30;0.20;;;19.40;98.10;;;;;;5069200;28;21058;-75
2024/03/04 11:45:16;;;;;;;0.60;0.60;;;19.50;97.70;;;;;;5066250;28;20417;-75
2024/03/04 11:47:42;;;;;;;0.30;0.20;;;19.60;97.60;;;;;;5071871;28;20886;-75
2024/03/04 11:50:28;;;;;;;0.30;0.30;;;19.60;97.60;;;;;;5068721;28;20434;-76
2024/03/04 11:52:56;;;;;;;0.30;0.20;;;19.60;97.50;;;;;;5071874;28;20231;-76
2024/03/04 11:55:22;;;;;;;0.60;0.37;;;19.50;97.60;;;;;;5073817;28;20481;-76
2024/03/04 11:57:48;;;;;;;0.30;0.20;;;19.50;97.90;;;;;;5070467;28;20480;-76
2024/03/04 12:00:16;;;;;;;0.30;0.20;;;19.60;97.90;;;;;;5078281;28;20446;-75
2024/03/04 12:02:42;;;;;;;0.40;0.20;;;19.50;97.90;;;;;;5074114;28;20604;-76
2024/03/04 12:05:12;;;;;;;0.40;0.30;;;19.40;97.70;;;;;;5067106;28;20429;-75
2024/03/04 12:07:40;;;;;;;0.30;0.20;;;19.30;98.20;;;;;;5065217;28;20452;-76
2024/03/04 12:10:06;;;;;;;0.30;0.20;;;19.40;98.10;;;;;;5072456;28;20719;-77
2024/03/04 12:12:32;;;;;;;0.30;0.20;;;19.30;97.20;;;;;;5073219;28;20491;-76
2024/03/04 12:14:58;;;;;;;0.43;0.43;;;19.30;97.30;;;;;;5071660;28;20440;-76
2024/03/04 12:17:23;;;;;;;2.20;2.10;;;19.40;97.40;;;;;;5075097;28;20220;-76
2024/03/04 12:19:56;;;;;;;0.30;0.20;;;19.50;97.70;;;;;;5074998;28;22336;-75
2024/03/04 12:22:26;;;;;;;0.30;0.20;;;19.50;97.20;;;;;;5064923;28;20284;-75
2024/03/04 12:25:04;;;;;;;0.50;0.50;;;19.50;97.30;;;;;;5069939;28;20437;-75
2024/03/04 12:27:31;;;;;;;3.10;2.90;;;19.50;97.40;;;;;;5069332;28;20675;-75
2024/03/04 12:30:16;;;;;;;2.57;2.30;;;19.60;97.70;;;;;;5073690;28;20716;-75
2024/03/04 12:32:42;;;;;;;0.30;0.20;;;19.70;97.10;;;;;;5077892;28;20461;-76
2024/03/04 12:35:32;;;;;;;0.87;0.87;;;19.70;97.50;;;;;;5078728;28;21001;-76
2024/03/04 12:37:59;;;;;;;0.30;0.30;;;19.70;97.60;;;;;;5075763;28;20477;-75
2024/03/04 12:40:26;;;;;;;0.30;0.30;;;19.70;97.30;;;;;;5077159;28;21112;-76
2024/03/04 12:43:04;;;;;;;0.30;0.20;;;19.70;96.90;;;;;;5071366;28;20507;-75
2024/03/04 12:45:34;;;;;;;1.70;0.77;;;19.70;97.20;;;;;;5076600;28;20440;-75
2024/03/04 12:48:00;;;;;;;0.30;0.20;;;19.70;96.60;;;;;;5075688;28;20456;-76
2024/03/04 12:50:27;;;;;;;0.30;0.20;;;19.70;96.40;;;;;;5074836;28;20444;-76
2024/03/04 12:52:54;;;;;;;0.30;0.20;;;19.80;96.40;;;;;;5074314;28;20448;-77
2024/03/04 12:55:20;;;;;;;0.40;0.40;;;19.80;95.90;;;;;;5076140;28;20440;-76